createdAt,value
2017-12-11T00:01:05.026Z,97543.27
2017-12-11T00:03:32.820Z,97548.30
2017-12-11T00:06:00.505Z,97543.46
2017-12-11T00:08:28.193Z,97542.56
2017-12-11T00:10:55.927Z,97535.97
2017-12-11T00:13:23.618Z,97542.06
2017-12-11T00:15:51.397Z,97534.02
2017-12-11T00:18:19.075Z,97533.27
2017-12-11T00:20:46.796Z,97535.41
2017-12-11T00:23:14.471Z,97536.28
2017-12-11T00:25:42.191Z,97533.95
2017-12-11T00:28:09.868Z,97533.92
2017-12-11T00:30:37.597Z,97542.94
2017-12-11T00:33:05.272Z,97534.98
2017-12-11T00:35:33.014Z,97546.05
2017-12-11T00:38:00.684Z,97556.80
2017-12-11T00:40:28.422Z,97553.91
2017-12-11T00:42:56.116Z,97545.64
2017-12-11T00:45:23.846Z,97543.77
2017-12-11T00:47:51.540Z,97540.03
2017-12-11T00:50:19.262Z,97548.49
2017-12-11T00:52:46.976Z,97543.30
2017-12-11T00:55:14.696Z,97549.33
2017-12-11T00:57:42.376Z,97549.20
2017-12-11T01:00:10.157Z,97557.31
2017-12-11T01:02:37.832Z,97554.94
2017-12-11T01:05:05.576Z,97557.94
2017-12-11T01:07:33.248Z,97558.16
2017-12-11T01:10:00.996Z,97561.76
2017-12-11T01:12:28.693Z,97570.68
2017-12-11T01:14:56.421Z,97564.14
2017-12-11T01:17:24.096Z,97574.03
2017-12-11T01:19:51.820Z,97581.34
2017-12-11T01:22:19.490Z,97575.30
2017-12-11T01:24:47.211Z,97581.64
2017-12-11T01:27:14.896Z,97596.11
2017-12-11T01:29:42.612Z,97601.08
2017-12-11T01:32:10.310Z,97595.05
2017-12-11T01:34:38.052Z,97593.42
2017-12-11T01:37:05.736Z,97604.03
2017-12-11T01:39:33.475Z,97610.23
2017-12-11T01:42:01.094Z,97619.66
2017-12-11T01:44:28.817Z,97629.09
2017-12-11T01:46:56.500Z,97627.31
2017-12-11T01:49:24.246Z,97636.39
2017-12-11T01:51:51.984Z,97633.31
2017-12-11T01:54:19.731Z,97643.36
2017-12-11T01:56:47.411Z,97642.64
2017-12-11T01:59:15.147Z,97642.48
2017-12-11T02:01:42.825Z,97642.95
2017-12-11T02:04:10.509Z,97650.83
2017-12-11T02:06:38.233Z,97644.63
2017-12-11T02:09:05.935Z,97653.93
2017-12-11T02:11:33.655Z,97659.47
2017-12-11T02:14:01.387Z,97669.06
2017-12-11T02:16:29.136Z,97673.01
2017-12-11T02:18:56.829Z,97679.20
2017-12-11T02:21:24.574Z,97687.38
2017-12-11T02:23:52.268Z,97685.11
2017-12-11T02:26:20.016Z,97689.46
2017-12-11T02:28:48.126Z,97694.20
2017-12-11T02:31:15.854Z,97710.48
2017-12-11T02:33:43.527Z,97713.69
2017-12-11T02:36:11.280Z,97718.85
2017-12-11T02:38:38.983Z,97727.38
2017-12-11T02:41:06.784Z,97728.91
2017-12-11T02:43:34.469Z,97734.05
2017-12-11T02:46:02.213Z,97743.33
2017-12-11T02:48:29.899Z,97744.52
2017-12-11T02:50:57.651Z,97751.05
2017-12-11T02:53:25.383Z,97756.19
2017-12-11T02:55:53.109Z,97766.25
2017-12-11T02:58:20.789Z,97771.41
2017-12-11T03:00:48.530Z,97764.72
2017-12-11T03:03:16.216Z,97772.38
2017-12-11T03:05:43.948Z,97781.07
2017-12-11T03:08:11.630Z,97780.73
2017-12-11T03:10:39.295Z,97787.73
2017-12-11T03:13:06.980Z,97788.20
2017-12-11T03:15:34.703Z,97792.77
2017-12-11T03:18:02.406Z,97805.92
2017-12-11T03:20:30.135Z,97813.13
2017-12-11T03:22:57.834Z,97817.39
2017-12-11T03:25:25.565Z,97823.91
2017-12-11T03:27:53.260Z,97821.47
2017-12-11T03:30:21.012Z,97830.06
2017-12-11T03:32:48.723Z,97833.77
2017-12-11T03:35:16.446Z,97841.19
2017-12-11T03:37:44.122Z,97847.08
2017-12-11T03:40:11.857Z,97849.97
2017-12-11T03:42:40.538Z,97846.52
2017-12-11T03:45:08.201Z,97852.16
2017-12-11T03:47:35.893Z,97868.05
2017-12-11T03:50:03.618Z,97877.86
2017-12-11T03:52:31.337Z,97894.73
2017-12-11T03:54:59.009Z,97901.58
2017-12-11T03:57:26.729Z,97913.30
2017-12-11T03:59:54.417Z,97923.80
2017-12-11T04:02:22.157Z,97929.50
2017-12-11T04:04:49.844Z,97933.69
2017-12-11T04:07:17.569Z,97947.17
2017-12-11T04:09:45.247Z,97961.30
2017-12-11T04:12:12.974Z,97963.56
2017-12-11T04:14:40.655Z,97965.72
2017-12-11T04:17:08.390Z,97976.29
2017-12-11T04:19:36.090Z,97985.98
2017-12-11T04:22:03.816Z,97992.11
2017-12-11T04:24:31.497Z,97996.37
2017-12-11T04:26:59.232Z,97990.77
2017-12-11T04:29:26.918Z,97983.03
2017-12-11T04:31:54.592Z,97986.27
2017-12-11T04:34:22.291Z,98001.81
2017-12-11T04:36:50.028Z,98002.97
2017-12-11T04:39:17.714Z,98002.56
2017-12-11T04:41:45.439Z,98007.80
2017-12-11T04:44:13.130Z,98011.91
2017-12-11T04:46:40.872Z,98025.70
2017-12-11T04:49:08.573Z,98031.67
2017-12-11T04:51:36.302Z,98035.56
2017-12-11T04:54:04.027Z,98043.94
2017-12-11T04:56:31.769Z,98044.91
2017-12-11T04:58:59.457Z,98043.63
2017-12-11T05:01:27.186Z,98050.73
2017-12-11T05:03:54.882Z,98075.70
2017-12-11T05:06:22.646Z,98079.27
2017-12-11T05:08:50.361Z,98093.78
2017-12-11T05:11:18.106Z,98112.64
2017-12-11T05:13:45.802Z,98149.58
2017-12-11T05:16:13.539Z,98149.02
2017-12-11T05:18:41.245Z,98148.05
2017-12-11T05:21:09.001Z,98185.77
2017-12-11T05:23:36.705Z,98208.52
2017-12-11T05:26:04.466Z,98215.86
2017-12-11T05:28:32.186Z,98234.01
2017-12-11T05:30:59.921Z,98242.13
2017-12-11T05:33:27.618Z,98248.91
2017-12-11T05:35:55.361Z,98283.88
2017-12-11T05:38:23.050Z,98290.91
2017-12-11T05:40:50.796Z,98285.02
2017-12-11T05:43:18.479Z,98292.91
2017-12-11T05:45:46.179Z,98290.88
2017-12-11T05:48:13.873Z,98289.91
2017-12-11T05:50:41.503Z,98300.87
2017-12-11T05:53:09.301Z,98288.13
2017-12-11T05:55:37.007Z,98289.87
2017-12-11T05:58:04.774Z,98288.16
2017-12-11T06:00:32.493Z,98303.89
2017-12-11T06:03:00.227Z,98305.73
2017-12-11T06:05:27.907Z,98305.47
2017-12-11T06:07:55.647Z,98317.45
2017-12-11T06:10:23.337Z,98298.48
2017-12-11T06:12:51.080Z,98268.98
2017-12-11T06:15:18.775Z,98233.52
2017-12-11T06:17:46.511Z,98219.68
2017-12-11T06:20:14.194Z,98213.46
2017-12-11T06:22:41.936Z,98218.86
2017-12-11T06:25:09.650Z,98210.16
2017-12-11T06:27:37.401Z,98219.00
2017-12-11T06:30:05.092Z,98222.23
2017-12-11T06:32:32.835Z,98223.66
2017-12-11T06:35:00.521Z,98240.50
2017-12-11T06:37:28.253Z,98235.58
2017-12-11T06:39:55.956Z,98222.14
2017-12-11T06:42:23.694Z,98222.55
2017-12-11T06:44:51.385Z,98206.42
2017-12-11T06:47:19.128Z,98181.78
2017-12-11T06:49:46.804Z,98197.09
2017-12-11T06:52:14.601Z,98251.30
2017-12-11T06:54:42.294Z,98279.50
2017-12-11T06:57:10.039Z,98297.45
2017-12-11T06:59:37.744Z,98299.09
2017-12-11T07:02:05.496Z,98304.50
2017-12-11T07:04:33.202Z,98337.91
2017-12-11T07:07:00.939Z,98364.57
2017-12-11T07:09:28.620Z,98373.05
2017-12-11T07:11:56.351Z,98370.05
2017-12-11T07:14:24.038Z,98357.17
2017-12-11T07:16:51.770Z,98369.34
2017-12-11T07:19:19.468Z,98375.52
2017-12-11T07:21:47.201Z,98384.06
2017-12-11T07:24:14.902Z,98389.80
2017-12-11T07:26:42.643Z,98396.27
2017-12-11T07:29:10.355Z,98396.00
2017-12-11T07:31:38.134Z,98397.62
2017-12-11T07:34:05.952Z,98381.34
2017-12-11T07:36:33.634Z,98372.31
2017-12-11T07:39:01.385Z,98379.48
2017-12-11T07:41:29.084Z,98373.94
2017-12-11T07:43:56.824Z,98373.88
2017-12-11T07:46:24.513Z,98383.20
2017-12-11T07:48:52.263Z,98376.87
2017-12-11T07:51:19.972Z,98378.41
2017-12-11T07:53:47.825Z,98384.38
2017-12-11T07:56:15.509Z,98396.41
2017-12-11T07:58:43.200Z,98399.64
2017-12-11T08:01:10.911Z,98408.90
2017-12-11T08:03:38.654Z,98418.19
2017-12-11T08:06:06.351Z,98428.83
2017-12-11T08:08:34.091Z,98422.23
2017-12-11T08:11:01.786Z,98432.23
2017-12-11T08:13:29.529Z,98442.95
2017-12-11T08:15:57.248Z,98463.99
2017-12-11T08:18:24.999Z,98485.13
2017-12-11T08:20:52.706Z,98475.27
2017-12-11T08:23:20.434Z,98478.83
2017-12-11T08:25:48.126Z,98478.51
2017-12-11T08:28:15.857Z,98469.73
2017-12-11T08:30:43.581Z,98455.28
2017-12-11T08:33:11.332Z,98456.83
2017-12-11T08:35:39.033Z,98461.17
2017-12-11T08:38:06.788Z,98461.66
2017-12-11T08:40:34.505Z,98454.74
2017-12-11T08:43:02.237Z,98454.86
2017-12-11T08:45:29.945Z,98457.42
2017-12-11T08:47:57.706Z,98464.35
2017-12-11T08:50:25.415Z,98464.88
2017-12-11T08:52:53.204Z,98460.84
2017-12-11T08:55:20.913Z,98465.22
2017-12-11T08:57:48.598Z,98467.14
2017-12-11T09:00:16.349Z,98477.02
2017-12-11T09:02:44.105Z,98480.81
2017-12-11T09:05:11.792Z,98473.08
2017-12-11T09:07:39.531Z,98468.34
2017-12-11T09:10:07.251Z,98484.17
2017-12-11T09:12:35.002Z,98500.56
2017-12-11T09:15:02.702Z,98495.95
2017-12-11T09:17:30.419Z,98489.33
2017-12-11T09:19:58.179Z,98497.20
2017-12-11T09:22:25.872Z,98493.49
2017-12-11T09:24:53.609Z,98518.16
2017-12-11T09:27:21.290Z,98519.70
2017-12-11T09:29:49.031Z,98516.88
2017-12-11T09:32:16.716Z,98523.89
2017-12-11T09:34:44.444Z,98515.20
2017-12-11T09:37:12.141Z,98527.05
2017-12-11T09:39:39.991Z,98541.06
2017-12-11T09:42:07.703Z,98540.25
2017-12-11T09:44:35.457Z,98544.56
2017-12-11T09:47:03.164Z,98543.52
2017-12-11T09:49:30.956Z,98548.94
2017-12-11T09:51:58.705Z,98549.70
2017-12-11T09:54:26.451Z,98551.56
2017-12-11T09:56:54.149Z,98550.55
2017-12-11T09:59:21.914Z,98560.27
2017-12-11T10:01:49.633Z,98568.19
2017-12-11T10:04:17.447Z,98573.77
2017-12-11T10:06:45.143Z,98584.52
2017-12-11T10:09:12.950Z,98565.82
2017-12-11T10:11:40.646Z,98561.45
2017-12-11T10:14:08.399Z,98568.23
2017-12-11T10:16:36.097Z,98561.79
2017-12-11T10:19:03.840Z,98546.30
2017-12-11T10:21:31.582Z,98543.02
2017-12-11T10:23:59.354Z,98543.22
2017-12-11T10:26:27.052Z,98518.46
2017-12-11T10:28:54.793Z,98519.44
2017-12-11T10:31:22.489Z,98515.33
2017-12-11T10:33:50.231Z,98518.39
2017-12-11T10:36:17.943Z,98514.84
2017-12-11T10:38:45.691Z,98524.59
2017-12-11T10:41:13.401Z,98533.65
2017-12-11T10:43:41.170Z,98550.50
2017-12-11T10:46:08.874Z,98553.14
2017-12-11T10:48:36.624Z,98555.38
2017-12-11T10:51:04.324Z,98536.59
2017-12-11T10:53:32.111Z,98524.58
2017-12-11T10:55:59.795Z,98523.14
2017-12-11T10:58:27.494Z,98512.47
2017-12-11T11:00:55.235Z,98521.24
2017-12-11T11:03:22.936Z,98529.87
2017-12-11T11:05:50.678Z,98538.91
2017-12-11T11:08:18.388Z,98542.93
2017-12-11T11:10:46.080Z,98550.45
2017-12-11T11:13:13.801Z,98552.17
2017-12-11T11:15:41.556Z,98544.09
2017-12-11T11:18:09.263Z,98543.27
2017-12-11T11:20:37.026Z,98556.85
2017-12-11T11:23:04.735Z,98564.78
2017-12-11T11:25:32.483Z,98558.83
2017-12-11T11:28:00.175Z,98561.64
2017-12-11T11:30:27.909Z,98560.27
2017-12-11T11:32:55.654Z,98549.45
2017-12-11T11:35:23.395Z,98562.61
2017-12-11T11:37:51.105Z,98574.66
2017-12-11T11:40:18.836Z,98567.48
2017-12-11T11:42:46.516Z,98561.02
2017-12-11T11:45:14.277Z,98561.80
2017-12-11T11:47:41.955Z,98553.22
2017-12-11T11:50:09.715Z,98554.30
2017-12-11T11:52:37.464Z,98565.02
2017-12-11T11:55:05.227Z,98533.05
2017-12-11T11:57:32.936Z,98539.09
2017-12-11T12:00:00.700Z,98527.77
2017-12-11T12:02:28.417Z,98520.41
2017-12-11T12:04:56.172Z,98507.94
2017-12-11T12:07:23.868Z,98497.38
2017-12-11T12:09:51.670Z,98506.09
2017-12-11T12:12:19.435Z,98484.15
2017-12-11T12:14:47.180Z,98495.03
2017-12-11T12:17:14.885Z,98510.41
2017-12-11T12:19:42.661Z,98518.16
2017-12-11T12:22:10.368Z,98510.27
2017-12-11T12:24:38.128Z,98509.42
2017-12-11T12:27:05.820Z,98524.39
2017-12-11T12:29:33.587Z,98520.83
2017-12-11T12:32:01.299Z,98516.23
2017-12-11T12:34:29.044Z,98503.48
2017-12-11T12:36:56.751Z,98489.36
2017-12-11T12:39:24.504Z,98480.02
2017-12-11T12:41:52.246Z,98459.85
2017-12-11T12:44:19.929Z,98469.45
2017-12-11T12:46:47.680Z,98475.23
2017-12-11T12:49:15.385Z,98450.48
2017-12-11T12:51:43.117Z,98473.23
2017-12-11T12:54:10.872Z,98468.37
2017-12-11T12:56:38.605Z,98459.67
2017-12-11T12:59:06.231Z,98459.67
2017-12-11T13:01:33.998Z,98456.45
2017-12-11T13:04:01.690Z,98448.82
2017-12-11T13:06:29.440Z,98443.27
2017-12-11T13:08:57.162Z,98442.71
2017-12-11T13:11:24.905Z,98433.81
2017-12-11T13:13:52.643Z,98427.35
2017-12-11T13:16:20.392Z,98432.32
2017-12-11T13:18:48.090Z,98441.56
2017-12-11T13:21:15.831Z,98429.51
2017-12-11T13:23:43.542Z,98416.53
2017-12-11T13:26:11.288Z,98421.13
2017-12-11T13:28:38.992Z,98418.71
2017-12-11T13:31:06.742Z,98407.01
2017-12-11T13:33:34.461Z,98407.42
2017-12-11T13:36:02.204Z,98395.90
2017-12-11T13:38:29.922Z,98400.72
2017-12-11T13:40:57.683Z,98399.95
2017-12-11T13:43:25.355Z,98393.84
2017-12-11T13:45:53.088Z,98390.36
2017-12-11T13:48:20.725Z,98387.62
2017-12-11T13:50:48.458Z,98387.69
2017-12-11T13:53:16.214Z,98390.50
2017-12-11T13:55:43.960Z,98386.87
2017-12-11T13:58:11.645Z,98382.27
2017-12-11T14:00:39.389Z,98382.34
2017-12-11T14:03:07.101Z,98379.25
2017-12-11T14:05:34.836Z,98367.95
2017-12-11T14:08:02.518Z,98361.31
2017-12-11T14:10:30.254Z,98359.87
2017-12-11T14:12:57.958Z,98347.87
2017-12-11T14:15:25.695Z,98348.98
2017-12-11T14:17:53.375Z,98341.90
2017-12-11T14:20:21.098Z,98341.57
2017-12-11T14:22:48.786Z,98333.67
2017-12-11T14:25:16.501Z,98328.48
2017-12-11T14:27:44.184Z,98318.97
2017-12-11T14:30:11.862Z,98306.56
2017-12-11T14:32:39.589Z,98295.53
2017-12-11T14:35:07.271Z,98299.86
2017-12-11T14:37:34.983Z,98301.55
2017-12-11T14:40:02.681Z,98288.08
2017-12-11T14:42:30.326Z,98286.37
2017-12-11T14:44:58.075Z,98269.31
2017-12-11T14:47:25.811Z,98276.98
2017-12-11T14:49:53.505Z,98289.38
2017-12-11T14:52:21.268Z,98304.84
2017-12-11T14:54:48.939Z,98309.66
2017-12-11T14:57:16.662Z,98293.00
2017-12-11T14:59:44.358Z,98285.74
2017-12-11T15:02:12.090Z,98304.93
2017-12-11T15:04:39.796Z,98310.00
2017-12-11T15:07:07.523Z,98316.11
2017-12-11T15:09:35.207Z,98330.39
2017-12-11T15:12:02.988Z,98332.80
2017-12-11T15:14:30.676Z,98319.58
2017-12-11T15:16:58.410Z,98337.65
2017-12-11T15:19:26.091Z,98343.20
2017-12-11T15:21:53.830Z,98331.24
2017-12-11T15:24:21.515Z,98333.28
2017-12-11T15:26:49.237Z,98337.39
2017-12-11T15:29:16.934Z,98350.20
2017-12-11T15:31:44.671Z,98348.13
2017-12-11T15:34:12.371Z,98342.54
2017-12-11T15:36:40.113Z,98327.95
2017-12-11T15:39:07.818Z,98320.69
2017-12-11T15:41:35.568Z,98320.88
2017-12-11T15:44:03.251Z,98303.14
2017-12-11T15:46:30.971Z,98301.44
2017-12-11T15:48:58.672Z,98295.89
2017-12-11T15:51:26.452Z,98294.66
2017-12-11T15:53:54.174Z,98288.47
2017-12-11T15:56:21.908Z,98289.44
2017-12-11T15:58:49.530Z,98303.28
2017-12-11T16:01:17.255Z,98296.58
2017-12-11T16:03:44.956Z,98295.41
2017-12-11T16:06:12.681Z,98307.47
2017-12-11T16:08:40.370Z,98297.00
2017-12-11T16:11:08.101Z,98304.44
2017-12-11T16:13:35.779Z,98304.19
2017-12-11T16:16:03.504Z,98313.44
2017-12-11T16:18:31.143Z,98322.65
2017-12-11T16:20:58.931Z,98333.20
2017-12-11T16:23:26.609Z,98338.20
2017-12-11T16:25:54.303Z,98345.46
2017-12-11T16:28:22.036Z,98340.62
2017-12-11T16:30:49.748Z,98346.36
2017-12-11T16:33:17.467Z,98339.66
2017-12-11T16:35:45.153Z,98331.28
2017-12-11T16:38:12.883Z,98341.02
2017-12-11T16:40:40.579Z,98351.91
2017-12-11T16:43:08.291Z,98345.76
2017-12-11T16:45:35.970Z,98322.05
2017-12-11T16:48:03.727Z,98313.50
2017-12-11T16:50:31.465Z,98303.09
2017-12-11T16:52:59.137Z,98291.52
2017-12-11T16:55:26.823Z,98274.19
2017-12-11T16:57:54.542Z,98253.97
2017-12-11T17:00:22.228Z,98235.13
2017-12-11T17:02:49.985Z,98220.44
2017-12-11T17:05:17.671Z,98223.84
2017-12-11T17:07:45.404Z,98223.43
2017-12-11T17:10:13.090Z,98213.91
2017-12-11T17:12:40.814Z,98200.78
2017-12-11T17:15:08.494Z,98203.36
2017-12-11T17:17:36.226Z,98205.30
2017-12-11T17:20:03.910Z,98195.08
2017-12-11T17:22:31.640Z,98196.19
2017-12-11T17:24:59.327Z,98220.77
2017-12-11T17:27:27.069Z,98221.80
2017-12-11T17:29:54.750Z,98201.11
2017-12-11T17:32:22.476Z,98186.30
2017-12-11T17:34:50.153Z,98181.63
2017-12-11T17:37:17.919Z,98168.83
2017-12-11T17:39:45.612Z,98149.47
2017-12-11T17:42:13.374Z,98154.47
2017-12-11T17:44:41.072Z,98173.56
2017-12-11T17:47:08.826Z,98170.75
2017-12-11T17:49:36.503Z,98171.34
2017-12-11T17:52:04.242Z,98156.57
2017-12-11T17:54:31.970Z,98127.58
2017-12-11T17:56:59.707Z,98126.91
2017-12-11T17:59:27.390Z,98130.95
2017-12-11T18:01:55.119Z,98117.02
2017-12-11T18:04:22.825Z,98115.31
2017-12-11T18:06:50.551Z,98139.48
2017-12-11T18:09:18.223Z,98159.89
2017-12-11T18:11:46.003Z,98175.84
2017-12-11T18:14:13.755Z,98197.29
2017-12-11T18:16:41.434Z,98201.66
2017-12-11T18:19:09.154Z,98217.87
2017-12-11T18:21:36.817Z,98208.50
2017-12-11T18:24:04.550Z,98207.06
2017-12-11T18:26:32.239Z,98208.76
2017-12-11T18:28:59.986Z,98207.39
2017-12-11T18:31:27.671Z,98196.66
2017-12-11T18:33:55.419Z,98195.53
2017-12-11T18:36:23.107Z,98196.27
2017-12-11T18:38:50.832Z,98176.34
2017-12-11T18:41:18.511Z,98178.27
2017-12-11T18:43:46.233Z,98174.41
2017-12-11T18:46:13.925Z,98165.94
2017-12-11T18:48:41.664Z,98169.98
2017-12-11T18:51:09.351Z,98170.23
2017-12-11T18:53:37.135Z,98173.13
2017-12-11T18:56:04.807Z,98183.42
2017-12-11T18:58:32.535Z,98194.23
2017-12-11T19:01:00.223Z,98193.53
2017-12-11T19:03:27.989Z,98184.49
2017-12-11T19:05:55.694Z,98172.48
2017-12-11T19:08:23.418Z,98176.02
2017-12-11T19:10:51.107Z,98166.83
2017-12-11T19:13:18.827Z,98158.53
2017-12-11T19:15:46.508Z,98162.08
2017-12-11T19:18:14.275Z,98159.89
2017-12-11T19:20:41.952Z,98151.91
2017-12-11T19:23:09.688Z,98156.83
2017-12-11T19:25:37.380Z,98156.42
2017-12-11T19:28:05.128Z,98149.75
2017-12-11T19:30:33.782Z,98140.38
2017-12-11T19:33:01.528Z,98140.87
2017-12-11T19:35:29.210Z,98132.50
2017-12-11T19:37:56.950Z,98129.09
2017-12-11T19:40:24.649Z,98131.28
2017-12-11T19:42:52.389Z,98134.42
2017-12-11T19:45:20.066Z,98143.54
2017-12-11T19:47:47.817Z,98137.24
2017-12-11T19:50:15.511Z,98157.58
2017-12-11T19:52:43.290Z,98141.69
2017-12-11T19:55:10.965Z,98149.02
2017-12-11T19:57:38.625Z,98151.13
2017-12-11T20:00:06.245Z,98140.23
2017-12-11T20:02:33.914Z,98168.53
2017-12-11T20:05:01.608Z,98178.94
2017-12-11T20:07:29.377Z,98173.27
2017-12-11T20:09:57.116Z,98172.30
2017-12-11T20:12:24.827Z,98171.82
2017-12-11T20:14:52.537Z,98189.89
2017-12-11T20:17:20.222Z,98194.81
2017-12-11T20:19:47.882Z,98202.70
2017-12-11T20:22:15.591Z,98204.48
2017-12-11T20:24:43.330Z,98204.08
2017-12-11T20:27:12.040Z,98197.48
2017-12-11T20:29:39.768Z,98182.00
2017-12-11T20:32:07.496Z,98189.41
2017-12-11T20:34:35.239Z,98197.41
2017-12-11T20:37:03.327Z,98184.81
2017-12-11T20:39:31.084Z,98176.44
2017-12-11T20:41:58.756Z,98173.04
2017-12-11T20:44:26.431Z,98176.42
2017-12-11T20:46:54.196Z,98177.72
2017-12-11T20:49:21.944Z,98182.56
2017-12-11T20:51:49.600Z,98168.45
2017-12-11T20:54:17.347Z,98184.64
2017-12-11T20:56:45.018Z,98175.61
2017-12-11T20:59:12.690Z,98160.94
2017-12-11T21:01:40.308Z,98161.12
2017-12-11T21:04:08.005Z,98157.64
2017-12-11T21:06:35.619Z,98148.70
2017-12-11T21:09:03.316Z,98147.56
2017-12-11T21:11:30.933Z,98146.76
2017-12-11T21:13:58.610Z,98140.87
2017-12-11T21:16:26.242Z,98145.54
2017-12-11T21:18:53.918Z,98151.27
2017-12-11T21:21:21.547Z,98151.19
2017-12-11T21:23:49.209Z,98150.63
2017-12-11T21:26:16.865Z,98152.31
2017-12-11T21:28:44.527Z,98155.13
2017-12-11T21:31:12.194Z,98164.98
2017-12-11T21:33:39.915Z,98159.34
2017-12-11T21:36:07.613Z,98166.20
2017-12-11T21:38:35.328Z,98186.98
2017-12-11T21:41:02.940Z,98191.66
2017-12-11T21:43:30.595Z,98177.80
2017-12-11T21:45:58.274Z,98172.16
2017-12-11T21:48:26.015Z,98161.58
2017-12-11T21:50:53.634Z,98173.21
2017-12-11T21:53:21.425Z,98160.22
2017-12-11T21:55:49.054Z,98167.07
2017-12-11T21:58:16.707Z,98177.89
2017-12-11T22:00:44.387Z,98172.95
2017-12-11T22:03:11.998Z,98168.03
2017-12-11T22:05:39.675Z,98170.22
2017-12-11T22:08:07.353Z,98169.18
2017-12-11T22:10:35.094Z,98172.55
2017-12-11T22:13:02.798Z,98173.44
2017-12-11T22:15:30.466Z,98174.17
2017-12-11T22:17:58.184Z,98162.97
2017-12-11T22:20:25.933Z,98165.38
2017-12-11T22:22:53.563Z,98160.55
2017-12-11T22:25:21.291Z,98164.27
2017-12-11T22:27:48.974Z,98175.55
2017-12-11T22:30:16.705Z,98171.92
2017-12-11T22:32:44.386Z,98175.84
2017-12-11T22:35:12.106Z,98175.77
2017-12-11T22:37:39.833Z,98171.76
2017-12-11T22:40:07.546Z,98168.42
2017-12-11T22:42:35.231Z,98182.95
2017-12-11T22:45:02.974Z,98184.88
2017-12-11T22:47:30.690Z,98181.50
2017-12-11T22:49:58.428Z,98182.22
2017-12-11T22:52:26.047Z,98183.28
2017-12-11T22:54:53.776Z,98186.02
2017-12-11T22:57:21.450Z,98187.40
2017-12-11T22:59:49.108Z,98185.47
2017-12-11T23:02:17.113Z,98190.62
2017-12-11T23:04:44.827Z,98178.05
2017-12-11T23:07:12.513Z,98174.57
2017-12-11T23:09:40.231Z,98168.91
2017-12-11T23:12:07.935Z,98168.05
2017-12-11T23:14:35.658Z,98162.47
2017-12-11T23:17:03.375Z,98182.39
2017-12-11T23:19:31.110Z,98182.53
2017-12-11T23:21:58.800Z,98180.58
2017-12-11T23:24:26.522Z,98183.91
2017-12-11T23:26:54.200Z,98176.79
2017-12-11T23:29:21.948Z,98179.62
2017-12-11T23:31:49.635Z,98175.60
2017-12-11T23:34:17.384Z,98178.31
2017-12-11T23:36:45.066Z,98176.44
2017-12-11T23:39:12.783Z,98168.35
2017-12-11T23:41:40.390Z,98161.08
2017-12-11T23:44:08.094Z,98155.44
2017-12-11T23:46:35.803Z,98156.17
2017-12-11T23:49:03.526Z,98155.02
2017-12-11T23:51:31.200Z,98161.73
2017-12-11T23:56:53.310Z,98154.41
2017-12-11T23:59:21.033Z,98153.05
